createdAt,value
2022-12-31T00:00:03.803Z,8.54
2022-12-31T00:01:03.789Z,8.57
2022-12-31T00:02:03.964Z,8.57
2022-12-31T00:03:04.011Z,8.57
2022-12-31T00:04:03.749Z,8.57
2022-12-31T00:05:03.737Z,8.55
2022-12-31T00:06:03.746Z,8.55
2022-12-31T00:07:03.704Z,8.55
2022-12-31T00:08:03.692Z,8.55
2022-12-31T00:09:03.678Z,8.57
2022-12-31T00:10:03.669Z,8.58
2022-12-31T00:11:03.652Z,8.57
2022-12-31T00:12:03.640Z,8.55
2022-12-31T00:13:03.628Z,8.57
2022-12-31T00:14:03.610Z,8.55
2022-12-31T00:15:03.608Z,8.57
2022-12-31T00:16:08.349Z,8.55
2022-12-31T00:17:04.683Z,8.57
2022-12-31T00:18:03.577Z,8.57
2022-12-31T00:19:03.548Z,8.58
2022-12-31T00:20:03.539Z,8.57
2022-12-31T00:21:03.520Z,8.58
2022-12-31T00:22:03.532Z,8.58
2022-12-31T00:23:03.491Z,8.55
2022-12-31T00:24:03.480Z,8.57
2022-12-31T00:25:03.466Z,8.58
2022-12-31T00:26:03.459Z,8.58
2022-12-31T00:27:03.450Z,8.58
2022-12-31T00:28:03.436Z,8.60
2022-12-31T00:29:03.418Z,8.58
2022-12-31T00:30:04.974Z,8.58
2022-12-31T00:31:03.470Z,8.58
2022-12-31T00:32:03.374Z,8.57
2022-12-31T00:33:03.384Z,8.57
2022-12-31T00:34:03.358Z,8.58
2022-12-31T00:35:03.337Z,8.57
2022-12-31T00:36:03.334Z,8.58
2022-12-31T00:37:03.302Z,8.58
2022-12-31T00:38:03.318Z,8.60
2022-12-31T00:39:03.280Z,8.57
2022-12-31T00:40:03.268Z,8.57
2022-12-31T00:41:03.255Z,8.58
2022-12-31T00:42:03.239Z,8.58
2022-12-31T00:43:03.228Z,8.58
2022-12-31T00:44:03.214Z,8.58
2022-12-31T00:45:03.200Z,8.60
2022-12-31T00:46:03.243Z,8.60
2022-12-31T00:47:03.170Z,8.58
2022-12-31T00:48:03.165Z,8.58
2022-12-31T00:49:03.148Z,8.60
2022-12-31T00:50:03.152Z,8.58
2022-12-31T00:51:03.117Z,8.58
2022-12-31T00:52:03.103Z,8.57
2022-12-31T00:53:03.091Z,8.58
2022-12-31T00:54:03.101Z,8.58
2022-12-31T00:55:03.062Z,8.58
2022-12-31T00:56:03.052Z,8.58
2022-12-31T00:57:03.035Z,8.60
2022-12-31T00:58:03.025Z,8.58
2022-12-31T00:59:03.009Z,8.58
2022-12-31T01:00:03.003Z,8.58
2022-12-31T01:01:03.094Z,8.58
2022-12-31T01:02:03.189Z,8.58
2022-12-31T01:03:03.087Z,8.58
2022-12-31T01:04:02.946Z,8.60
2022-12-31T01:05:02.931Z,8.58
2022-12-31T01:06:02.939Z,8.58
2022-12-31T01:07:02.906Z,8.58
2022-12-31T01:08:02.951Z,8.58
2022-12-31T01:09:02.882Z,8.60
2022-12-31T01:10:02.885Z,8.58
2022-12-31T01:11:02.849Z,8.58
2022-12-31T01:12:02.849Z,8.60
2022-12-31T01:13:02.823Z,8.58
2022-12-31T01:14:02.819Z,8.58
2022-12-31T01:15:02.795Z,8.60
2022-12-31T01:16:02.828Z,8.58
2022-12-31T01:17:08.778Z,8.58
2022-12-31T01:18:02.808Z,8.58
2022-12-31T01:19:02.743Z,8.60
2022-12-31T01:20:02.737Z,8.60
2022-12-31T01:21:02.715Z,8.60
2022-12-31T01:22:02.706Z,8.60
2022-12-31T01:23:02.700Z,8.62
2022-12-31T01:24:02.677Z,8.60
2022-12-31T01:25:02.676Z,8.62
2022-12-31T01:26:02.674Z,8.62
2022-12-31T01:27:02.637Z,8.63
2022-12-31T01:28:02.622Z,8.62
2022-12-31T01:29:02.609Z,8.62
2022-12-31T01:30:02.596Z,8.62
2022-12-31T01:31:02.640Z,8.62
2022-12-31T01:32:02.569Z,8.62
2022-12-31T01:33:02.558Z,8.63
2022-12-31T01:34:02.551Z,8.62
2022-12-31T01:35:02.528Z,8.60
2022-12-31T01:36:08.520Z,8.62
2022-12-31T01:37:02.498Z,8.60
2022-12-31T01:38:02.484Z,8.62
2022-12-31T01:39:02.481Z,8.63
2022-12-31T01:40:02.473Z,8.60
2022-12-31T01:41:02.444Z,8.62
2022-12-31T01:42:02.460Z,8.62
2022-12-31T01:43:02.416Z,8.60
2022-12-31T01:44:02.425Z,8.60
2022-12-31T01:45:02.395Z,8.62
2022-12-31T01:46:02.420Z,8.60
2022-12-31T01:47:02.366Z,8.62
2022-12-31T01:48:02.352Z,8.63
2022-12-31T01:49:02.345Z,8.63
2022-12-31T01:50:02.332Z,8.63
2022-12-31T01:51:02.310Z,8.63
2022-12-31T01:52:02.306Z,8.62
2022-12-31T01:53:02.287Z,8.63
2022-12-31T01:54:02.273Z,8.60
2022-12-31T01:55:02.259Z,8.62
2022-12-31T01:56:02.245Z,8.62
2022-12-31T01:57:02.231Z,8.60
2022-12-31T01:58:02.248Z,8.63
2022-12-31T01:59:02.207Z,8.63
2022-12-31T02:00:02.193Z,8.62
2022-12-31T02:01:02.284Z,8.62
2022-12-31T02:02:02.321Z,8.62
2022-12-31T02:03:02.227Z,8.63
2022-12-31T02:04:02.139Z,8.63
2022-12-31T02:05:02.142Z,8.63
2022-12-31T02:06:02.111Z,8.65
2022-12-31T02:07:02.111Z,8.63
2022-12-31T02:08:02.085Z,8.63
2022-12-31T02:09:02.081Z,8.63
2022-12-31T02:10:02.066Z,8.62
2022-12-31T02:11:02.061Z,8.63
2022-12-31T02:12:02.033Z,8.63
2022-12-31T02:13:02.018Z,8.63
2022-12-31T02:14:02.052Z,8.63
2022-12-31T02:15:01.995Z,8.63
2022-12-31T02:16:02.016Z,8.63
2022-12-31T02:17:01.971Z,8.63
2022-12-31T02:18:01.950Z,8.63
2022-12-31T02:19:01.947Z,8.65
2022-12-31T02:20:01.924Z,8.63
2022-12-31T02:21:01.912Z,8.63
2022-12-31T02:22:01.904Z,8.65
2022-12-31T02:23:01.884Z,8.65
2022-12-31T02:24:01.867Z,8.63
2022-12-31T02:25:01.860Z,8.63
2022-12-31T02:26:01.845Z,8.63
2022-12-31T02:27:07.844Z,8.63
2022-12-31T02:28:01.817Z,8.63
2022-12-31T02:29:01.805Z,8.63
2022-12-31T02:30:01.858Z,8.65
2022-12-31T02:31:01.862Z,8.63
2022-12-31T02:32:01.764Z,8.65
2022-12-31T02:33:02.833Z,8.65
2022-12-31T02:34:01.745Z,8.66
2022-12-31T02:35:01.723Z,8.65
2022-12-31T02:36:01.708Z,8.65
2022-12-31T02:37:01.700Z,8.65
2022-12-31T02:38:07.687Z,8.63
2022-12-31T02:39:01.679Z,8.65
2022-12-31T02:40:01.679Z,8.65
2022-12-31T02:41:07.650Z,8.62
2022-12-31T02:42:01.642Z,8.65
2022-12-31T02:43:01.616Z,8.65
2022-12-31T02:44:07.607Z,8.66
2022-12-31T02:45:07.625Z,8.66
2022-12-31T02:46:01.575Z,8.65
2022-12-31T02:47:01.576Z,8.66
2022-12-31T02:48:01.550Z,8.65
2022-12-31T02:49:01.539Z,8.66
2022-12-31T02:50:01.521Z,8.68
2022-12-31T02:51:01.531Z,8.68
2022-12-31T02:53:06.449Z,8.68
2022-12-31T02:54:06.438Z,8.65
2022-12-31T02:55:06.423Z,8.65
2022-12-31T02:56:06.410Z,8.65
2022-12-31T02:57:06.397Z,8.68
2022-12-31T02:58:12.392Z,8.68
2022-12-31T02:59:41.325Z,8.66
2022-12-31T03:01:16.467Z,8.68
2022-12-31T03:02:16.664Z,8.66
2022-12-31T03:03:16.240Z,8.68
2022-12-31T03:04:16.230Z,8.66
2022-12-31T03:05:16.223Z,8.66
2022-12-31T03:06:22.200Z,8.68
2022-12-31T03:07:22.395Z,8.66
2022-12-31T03:08:57.130Z,8.68
2022-12-31T03:09:51.109Z,8.68
2022-12-31T03:10:51.097Z,8.68
2022-12-31T03:11:51.083Z,8.68
2022-12-31T03:12:51.070Z,8.68
2022-12-31T03:13:51.056Z,8.68
2022-12-31T03:14:51.047Z,8.68
2022-12-31T03:15:51.079Z,8.66
2022-12-31T03:16:51.045Z,8.68
2022-12-31T03:17:51.005Z,8.66
2022-12-31T03:18:50.993Z,8.68
2022-12-31T03:19:50.977Z,8.68
2022-12-31T03:20:50.965Z,8.69
2022-12-31T03:21:50.969Z,8.68
2022-12-31T03:22:50.965Z,8.69
2022-12-31T03:23:50.940Z,8.68
2022-12-31T03:24:50.913Z,8.68
2022-12-31T03:25:50.900Z,8.69
2022-12-31T03:26:50.897Z,8.69
2022-12-31T03:27:50.873Z,8.69
2022-12-31T03:28:50.860Z,8.71
2022-12-31T03:29:50.845Z,8.69
2022-12-31T03:30:50.844Z,8.68
2022-12-31T03:31:50.894Z,8.71
2022-12-31T03:32:50.830Z,8.68
2022-12-31T03:33:50.799Z,8.69
2022-12-31T03:34:50.782Z,8.71
2022-12-31T03:35:50.769Z,8.68
2022-12-31T03:36:50.754Z,8.71
2022-12-31T03:37:50.751Z,8.68
2022-12-31T03:38:52.799Z,8.71
2022-12-31T03:39:50.714Z,8.69
2022-12-31T03:40:50.698Z,8.69
2022-12-31T03:41:50.689Z,8.69
2022-12-31T03:42:50.682Z,8.72
2022-12-31T03:43:50.672Z,8.72
2022-12-31T03:44:50.650Z,8.72
2022-12-31T03:45:50.655Z,8.71
2022-12-31T03:46:50.621Z,8.71
2022-12-31T03:47:50.611Z,8.71
2022-12-31T03:48:50.618Z,8.69
2022-12-31T03:49:50.590Z,8.71
2022-12-31T03:50:50.575Z,8.71
2022-12-31T03:51:50.558Z,8.71
2022-12-31T03:52:50.545Z,8.71
2022-12-31T03:53:50.528Z,8.72
2022-12-31T03:54:50.517Z,8.69
2022-12-31T03:55:50.505Z,8.69
2022-12-31T03:56:52.994Z,8.71
2022-12-31T03:57:50.479Z,8.71
2022-12-31T03:58:50.471Z,8.71
2022-12-31T03:59:50.451Z,8.71
2022-12-31T04:00:50.498Z,8.71
2022-12-31T04:01:50.523Z,8.72
2022-12-31T04:02:50.442Z,8.71
2022-12-31T04:03:50.400Z,8.71
2022-12-31T04:04:50.407Z,8.71
2022-12-31T04:05:50.373Z,8.69
2022-12-31T04:06:50.376Z,8.71
2022-12-31T04:07:50.347Z,8.71
2022-12-31T04:08:50.332Z,8.72
2022-12-31T04:09:50.325Z,8.72
2022-12-31T04:10:50.304Z,8.71
2022-12-31T04:11:50.293Z,8.72
2022-12-31T04:12:50.295Z,8.71
2022-12-31T04:13:50.273Z,8.72
2022-12-31T04:14:50.253Z,8.72
2022-12-31T04:15:50.285Z,8.72
2022-12-31T04:16:50.315Z,8.72
2022-12-31T04:17:50.216Z,8.71
2022-12-31T04:18:50.200Z,8.73
2022-12-31T04:19:50.189Z,8.72
2022-12-31T04:20:50.195Z,8.72
2022-12-31T04:21:50.163Z,8.72
2022-12-31T04:22:50.178Z,8.73
2022-12-31T04:23:50.153Z,8.72
2022-12-31T04:24:50.121Z,8.72
2022-12-31T04:25:50.113Z,8.73
2022-12-31T04:26:50.101Z,8.73
2022-12-31T04:27:50.087Z,8.73
2022-12-31T04:28:50.066Z,8.73
2022-12-31T04:29:50.056Z,8.75
2022-12-31T04:30:50.045Z,8.75
2022-12-31T04:31:50.086Z,8.75
2022-12-31T04:32:50.025Z,8.76
2022-12-31T04:33:50.002Z,8.75
2022-12-31T04:34:50.001Z,8.76
2022-12-31T04:35:49.981Z,8.76
2022-12-31T04:36:49.991Z,8.73
2022-12-31T04:37:49.958Z,8.73
2022-12-31T04:38:49.938Z,8.75
2022-12-31T04:39:49.929Z,8.73
2022-12-31T04:40:49.912Z,8.75
2022-12-31T04:41:49.900Z,8.75
2022-12-31T04:42:49.884Z,8.73
2022-12-31T04:43:49.878Z,8.75
2022-12-31T04:44:49.857Z,8.75
2022-12-31T04:45:49.894Z,8.75
2022-12-31T04:46:49.831Z,8.73
2022-12-31T04:47:49.855Z,8.73
2022-12-31T04:48:49.811Z,8.72
2022-12-31T04:49:49.794Z,8.75
2022-12-31T04:50:49.824Z,8.75
2022-12-31T04:51:49.768Z,8.73
2022-12-31T04:52:49.781Z,8.75
2022-12-31T04:53:49.743Z,8.75
2022-12-31T04:54:49.749Z,8.75
2022-12-31T04:55:49.712Z,8.75
2022-12-31T04:56:49.697Z,8.75
2022-12-31T04:57:49.688Z,8.75
2022-12-31T04:58:49.677Z,8.75
2022-12-31T04:59:49.663Z,8.75
2022-12-31T05:00:49.779Z,8.75
2022-12-31T05:01:49.758Z,8.76
2022-12-31T05:02:49.845Z,8.76
2022-12-31T05:03:49.610Z,8.75
2022-12-31T05:04:49.594Z,8.76
2022-12-31T05:05:49.611Z,8.76
2022-12-31T05:06:49.567Z,8.76
2022-12-31T05:07:49.555Z,8.76
2022-12-31T05:08:49.575Z,8.76
2022-12-31T05:09:49.530Z,8.76
2022-12-31T05:10:49.519Z,8.75
2022-12-31T05:11:49.509Z,8.76
2022-12-31T05:12:49.493Z,8.76
2022-12-31T05:13:49.481Z,8.78
2022-12-31T05:14:49.463Z,8.78
2022-12-31T05:15:49.453Z,8.78
2022-12-31T05:16:49.504Z,8.76
2022-12-31T05:17:49.425Z,8.75
2022-12-31T05:18:49.407Z,8.76
2022-12-31T05:19:49.398Z,8.76
2022-12-31T05:20:49.386Z,8.75
2022-12-31T05:21:49.379Z,8.75
2022-12-31T05:22:49.363Z,8.75
2022-12-31T05:23:49.344Z,8.75
2022-12-31T05:24:49.359Z,8.75
2022-12-31T05:25:49.327Z,8.75
2022-12-31T05:26:49.306Z,8.76
2022-12-31T05:27:49.295Z,8.75
2022-12-31T05:28:49.284Z,8.75
2022-12-31T05:29:49.270Z,8.76
2022-12-31T05:30:49.301Z,8.78
2022-12-31T05:31:49.244Z,8.78
2022-12-31T05:32:49.232Z,8.76
2022-12-31T05:33:49.213Z,8.78
2022-12-31T05:34:49.202Z,8.79
2022-12-31T05:35:49.190Z,8.78
2022-12-31T05:36:49.171Z,8.78
2022-12-31T05:37:49.161Z,8.79
2022-12-31T05:38:49.156Z,8.78
2022-12-31T05:39:49.142Z,8.78
2022-12-31T05:40:49.147Z,8.76
2022-12-31T05:41:49.120Z,8.78
2022-12-31T05:42:49.094Z,8.78
2022-12-31T05:43:49.083Z,8.76
2022-12-31T05:44:49.068Z,8.76
2022-12-31T05:45:49.107Z,8.76
2022-12-31T05:46:49.042Z,8.78
2022-12-31T05:47:49.032Z,8.76
2022-12-31T05:48:49.016Z,8.76
2022-12-31T05:49:49.003Z,8.78
2022-12-31T05:50:48.988Z,8.78
2022-12-31T05:51:48.977Z,8.79
2022-12-31T05:52:48.962Z,8.78
2022-12-31T05:53:48.959Z,8.78
2022-12-31T05:54:48.937Z,8.79
2022-12-31T05:55:48.926Z,8.78
2022-12-31T05:56:48.936Z,8.79
2022-12-31T05:57:48.905Z,8.79
2022-12-31T05:58:48.883Z,8.79
2022-12-31T05:59:48.874Z,8.81
2022-12-31T06:00:48.856Z,8.83
2022-12-31T06:01:48.844Z,8.79
2022-12-31T06:02:48.888Z,8.81
2022-12-31T06:03:48.846Z,8.81
2022-12-31T06:04:48.827Z,8.79
2022-12-31T06:05:48.792Z,8.79
2022-12-31T06:06:48.777Z,8.79
2022-12-31T06:07:48.770Z,8.79
2022-12-31T06:08:48.775Z,8.81
2022-12-31T06:09:48.738Z,8.81
2022-12-31T06:10:48.724Z,8.79
2022-12-31T06:11:48.719Z,8.81
2022-12-31T06:12:48.735Z,8.81
2022-12-31T06:13:48.691Z,8.81
2022-12-31T06:14:48.672Z,8.81
2022-12-31T06:15:48.684Z,8.83
2022-12-31T06:16:48.645Z,8.84
2022-12-31T06:17:48.633Z,8.83
2022-12-31T06:18:48.621Z,8.83
2022-12-31T06:19:48.609Z,8.83
2022-12-31T06:20:48.592Z,8.81
2022-12-31T06:21:48.582Z,8.81
2022-12-31T06:22:48.566Z,8.81
2022-12-31T06:23:48.554Z,8.81
2022-12-31T06:24:48.540Z,8.81
2022-12-31T06:25:48.531Z,8.81
2022-12-31T06:26:48.515Z,8.83
2022-12-31T06:27:48.502Z,8.84
2022-12-31T06:28:48.527Z,8.84
2022-12-31T06:29:48.480Z,8.87
2022-12-31T06:30:48.527Z,8.87
2022-12-31T06:31:48.451Z,8.90
2022-12-31T06:32:48.433Z,8.91
2022-12-31T06:33:48.423Z,8.90
2022-12-31T06:34:48.409Z,8.88
2022-12-31T06:35:48.397Z,8.90
2022-12-31T06:36:48.384Z,8.90
2022-12-31T06:37:48.372Z,8.90
2022-12-31T06:38:48.359Z,8.93
2022-12-31T06:39:48.345Z,8.97
2022-12-31T06:40:48.330Z,8.99
2022-12-31T06:41:48.324Z,9.02
2022-12-31T06:42:48.303Z,9.02
2022-12-31T06:43:48.290Z,9.02
2022-12-31T06:44:48.300Z,9.02
2022-12-31T06:45:48.271Z,9.02
2022-12-31T06:46:48.328Z,9.01
2022-12-31T06:47:48.239Z,9.01
2022-12-31T06:48:48.232Z,9.01
2022-12-31T06:49:48.214Z,9.01
2022-12-31T06:50:48.199Z,9.01
2022-12-31T06:51:48.186Z,9.01
2022-12-31T06:52:48.172Z,9.01
2022-12-31T06:53:48.161Z,8.99
2022-12-31T06:54:48.145Z,8.99
2022-12-31T06:55:48.132Z,8.99
2022-12-31T06:56:48.124Z,8.96
2022-12-31T06:57:48.107Z,8.96
2022-12-31T06:58:48.142Z,8.96
2022-12-31T06:59:48.083Z,8.96
2022-12-31T07:00:48.089Z,8.97
2022-12-31T07:01:48.190Z,8.97
2022-12-31T07:02:48.208Z,8.96
2022-12-31T07:03:48.030Z,8.96
2022-12-31T07:04:48.013Z,8.96
2022-12-31T07:05:48.003Z,8.94
2022-12-31T07:06:47.995Z,8.96
2022-12-31T07:07:48.000Z,8.97
2022-12-31T07:08:47.959Z,9.01
2022-12-31T07:09:47.949Z,9.01
2022-12-31T07:10:47.936Z,9.02
2022-12-31T07:11:47.921Z,9.02
2022-12-31T07:12:47.907Z,9.01
2022-12-31T07:13:47.897Z,9.01
2022-12-31T07:14:47.888Z,9.01
2022-12-31T07:15:47.945Z,9.01
2022-12-31T07:16:47.882Z,9.02
2022-12-31T07:17:47.845Z,9.02
2022-12-31T07:18:47.832Z,9.01
2022-12-31T07:19:51.096Z,9.01
2022-12-31T07:20:48.845Z,9.01
2022-12-31T07:21:47.789Z,9.01
2022-12-31T07:22:47.784Z,9.01
2022-12-31T07:23:47.779Z,8.97
2022-12-31T07:24:47.753Z,8.97
2022-12-31T07:25:47.742Z,8.97
2022-12-31T07:26:52.566Z,8.99
2022-12-31T07:27:48.750Z,9.02
2022-12-31T07:28:47.698Z,9.02
2022-12-31T07:29:47.684Z,9.02
2022-12-31T07:30:47.671Z,9.04
2022-12-31T07:31:47.662Z,9.05
2022-12-31T07:32:47.672Z,9.05
2022-12-31T07:33:47.638Z,9.05
2022-12-31T07:34:47.617Z,9.05
2022-12-31T07:35:47.606Z,9.04
2022-12-31T07:36:47.589Z,9.04
2022-12-31T07:37:47.579Z,9.04
2022-12-31T07:38:47.564Z,9.04
2022-12-31T07:39:47.554Z,9.05
2022-12-31T07:40:47.539Z,9.05
2022-12-31T07:41:47.527Z,9.05
2022-12-31T07:42:47.513Z,9.05
2022-12-31T07:43:47.501Z,9.04
2022-12-31T07:44:47.489Z,9.05
2022-12-31T07:45:47.476Z,9.04
2022-12-31T07:46:47.503Z,9.04
2022-12-31T07:47:47.448Z,9.04
2022-12-31T07:48:47.460Z,9.04
2022-12-31T07:49:47.422Z,9.05
2022-12-31T07:50:47.408Z,9.04
2022-12-31T07:51:47.395Z,9.04
2022-12-31T07:52:47.388Z,9.04
2022-12-31T07:53:47.367Z,9.04
2022-12-31T07:54:47.354Z,9.04
2022-12-31T07:55:47.341Z,9.05
2022-12-31T07:56:47.339Z,9.04
2022-12-31T07:57:47.316Z,9.08
2022-12-31T07:58:47.302Z,9.08
2022-12-31T07:59:47.290Z,9.08
2022-12-31T08:00:47.321Z,9.06
2022-12-31T08:01:47.539Z,9.06
2022-12-31T08:02:47.341Z,9.08
2022-12-31T08:03:47.238Z,9.06
2022-12-31T08:04:47.249Z,9.06
2022-12-31T08:05:47.209Z,9.06
2022-12-31T08:06:47.206Z,9.05
2022-12-31T08:07:47.184Z,9.05
2022-12-31T08:08:47.174Z,9.06
2022-12-31T08:09:47.176Z,9.06
2022-12-31T08:10:47.151Z,9.05
2022-12-31T08:11:47.130Z,9.04
2022-12-31T08:12:47.118Z,9.04
2022-12-31T08:13:47.104Z,9.04
2022-12-31T08:14:47.099Z,9.02
2022-12-31T08:15:47.079Z,9.02
2022-12-31T08:16:47.123Z,9.02
2022-12-31T08:17:47.056Z,9.02
2022-12-31T08:18:47.039Z,9.02
2022-12-31T08:19:47.025Z,9.05
2022-12-31T08:20:47.039Z,9.06
2022-12-31T08:21:46.998Z,9.08
2022-12-31T08:22:46.984Z,9.09
2022-12-31T08:23:46.972Z,9.11
2022-12-31T08:24:46.960Z,9.09
2022-12-31T08:25:46.951Z,9.11
2022-12-31T08:26:52.596Z,9.09
2022-12-31T08:27:47.966Z,9.11
2022-12-31T08:28:46.911Z,9.08
2022-12-31T08:29:46.894Z,9.08
2022-12-31T08:30:46.883Z,9.08
2022-12-31T08:31:46.947Z,9.09
2022-12-31T08:32:46.859Z,9.12
2022-12-31T08:33:46.841Z,9.12
2022-12-31T08:34:46.832Z,9.14
2022-12-31T08:35:46.814Z,9.14
2022-12-31T08:36:46.831Z,9.11
2022-12-31T08:37:46.796Z,9.14
2022-12-31T08:38:46.775Z,9.12
2022-12-31T08:39:46.761Z,9.14
2022-12-31T08:40:46.752Z,9.12
2022-12-31T08:41:46.735Z,9.12
2022-12-31T08:42:46.727Z,9.11
2022-12-31T08:43:46.708Z,9.14
2022-12-31T08:44:46.702Z,9.15
2022-12-31T08:45:46.736Z,9.15
2022-12-31T08:46:46.669Z,9.17
2022-12-31T08:47:46.657Z,9.17
2022-12-31T08:48:46.645Z,9.17
2022-12-31T08:49:46.629Z,9.19
2022-12-31T08:50:46.637Z,9.17
2022-12-31T08:51:46.605Z,9.17
2022-12-31T08:52:46.623Z,9.19
2022-12-31T08:53:46.579Z,9.19
2022-12-31T08:54:46.563Z,9.20
2022-12-31T08:55:46.549Z,9.20
2022-12-31T08:56:50.463Z,9.20
2022-12-31T08:57:46.524Z,9.19
2022-12-31T08:58:46.513Z,9.19
2022-12-31T08:59:46.496Z,9.19
2022-12-31T09:00:46.522Z,9.19
2022-12-31T09:01:46.569Z,9.17
2022-12-31T09:02:48.429Z,9.17
2022-12-31T09:03:46.512Z,9.17
2022-12-31T09:04:46.441Z,9.17
2022-12-31T09:05:46.419Z,9.19
2022-12-31T09:06:46.407Z,9.19
2022-12-31T09:07:46.395Z,9.20
2022-12-31T09:08:46.412Z,9.19
2022-12-31T09:09:46.365Z,9.20
2022-12-31T09:10:46.358Z,9.19
2022-12-31T09:11:46.340Z,9.19
2022-12-31T09:12:46.334Z,9.17
2022-12-31T09:13:46.314Z,9.15
2022-12-31T09:14:46.306Z,9.17
2022-12-31T09:15:46.286Z,9.15
2022-12-31T09:16:46.320Z,9.15
2022-12-31T09:17:46.258Z,9.15
2022-12-31T09:18:46.245Z,9.19
2022-12-31T09:19:46.247Z,9.17
2022-12-31T09:20:46.223Z,9.17
2022-12-31T09:21:46.211Z,9.15
2022-12-31T09:22:46.231Z,9.14
2022-12-31T09:23:46.179Z,9.15
2022-12-31T09:24:46.199Z,9.14
2022-12-31T09:25:46.162Z,9.14
2022-12-31T09:26:46.146Z,9.14
2022-12-31T09:27:46.139Z,9.14
2022-12-31T09:28:46.125Z,9.14
2022-12-31T09:29:46.104Z,9.14
2022-12-31T09:30:46.092Z,9.14
2022-12-31T09:31:46.144Z,9.14
2022-12-31T09:32:46.073Z,9.14
2022-12-31T09:33:46.052Z,9.15
2022-12-31T09:34:46.047Z,9.14
2022-12-31T09:35:46.026Z,9.14
2022-12-31T09:36:46.009Z,9.12
2022-12-31T09:37:46.002Z,9.12
2022-12-31T09:38:45.987Z,9.14
2022-12-31T09:39:45.986Z,9.14
2022-12-31T09:40:45.991Z,9.14
2022-12-31T09:41:45.955Z,9.15
2022-12-31T09:42:45.938Z,9.15
2022-12-31T09:43:45.921Z,9.17
2022-12-31T09:44:45.908Z,9.19
2022-12-31T09:45:45.929Z,9.15
2022-12-31T09:46:45.881Z,9.17
2022-12-31T09:47:45.870Z,9.15
2022-12-31T09:48:45.859Z,9.15
2022-12-31T09:49:45.840Z,9.17
2022-12-31T09:50:45.833Z,9.14
2022-12-31T09:51:45.817Z,9.15
2022-12-31T09:52:45.804Z,9.14
2022-12-31T09:53:45.788Z,9.14
2022-12-31T09:54:45.795Z,9.15
2022-12-31T09:55:45.759Z,9.14
2022-12-31T09:56:45.789Z,9.12
2022-12-31T09:57:45.741Z,9.14
2022-12-31T09:58:45.723Z,9.12
2022-12-31T09:59:45.713Z,9.14
2022-12-31T10:00:45.703Z,9.15
2022-12-31T10:01:45.869Z,9.15
2022-12-31T10:02:45.955Z,9.15
2022-12-31T10:03:45.657Z,9.15
2022-12-31T10:04:45.661Z,9.15
2022-12-31T10:05:45.631Z,9.17
2022-12-31T10:06:45.621Z,9.17
2022-12-31T10:07:51.974Z,9.17
2022-12-31T10:08:46.635Z,9.19
2022-12-31T10:09:45.583Z,9.19
2022-12-31T10:10:45.565Z,9.17
2022-12-31T10:11:45.555Z,9.19
2022-12-31T10:12:45.561Z,9.19
2022-12-31T10:13:45.523Z,9.19
2022-12-31T10:14:47.739Z,9.20
2022-12-31T10:15:45.499Z,9.19
2022-12-31T10:16:45.540Z,9.19
2022-12-31T10:17:45.472Z,9.20
2022-12-31T10:18:45.465Z,9.20
2022-12-31T10:19:45.452Z,9.22
2022-12-31T10:20:45.712Z,9.22
2022-12-31T10:21:45.418Z,9.23
2022-12-31T10:22:45.426Z,9.22
2022-12-31T10:23:45.392Z,9.22
2022-12-31T10:24:45.382Z,9.22
2022-12-31T10:25:45.372Z,9.23
2022-12-31T10:26:49.810Z,9.24
2022-12-31T10:27:46.381Z,9.24
2022-12-31T10:28:45.351Z,9.23
2022-12-31T10:29:45.313Z,9.23
2022-12-31T10:30:45.367Z,9.24
2022-12-31T10:31:45.291Z,9.24
2022-12-31T10:32:45.275Z,9.23
2022-12-31T10:33:45.264Z,9.23
2022-12-31T10:34:45.248Z,9.23
2022-12-31T10:35:45.232Z,9.23
2022-12-31T10:36:45.222Z,9.23
2022-12-31T10:37:45.210Z,9.23
2022-12-31T10:38:45.197Z,9.22
2022-12-31T10:39:45.181Z,9.23
2022-12-31T10:40:45.173Z,9.23
2022-12-31T10:41:45.156Z,9.22
2022-12-31T10:42:45.142Z,9.22
2022-12-31T10:43:45.125Z,9.22
2022-12-31T10:44:45.141Z,9.22
2022-12-31T10:45:45.199Z,9.23
2022-12-31T10:46:45.133Z,9.24
2022-12-31T10:47:45.074Z,9.24
2022-12-31T10:48:45.080Z,9.23
2022-12-31T10:49:45.059Z,9.23
2022-12-31T10:50:45.038Z,9.26
2022-12-31T10:51:45.020Z,9.24
2022-12-31T10:52:45.012Z,9.23
2022-12-31T10:53:45.007Z,9.22
2022-12-31T10:54:44.984Z,9.22
2022-12-31T10:55:44.972Z,9.22
2022-12-31T10:56:44.957Z,9.22
2022-12-31T10:57:44.946Z,9.24
2022-12-31T10:58:44.937Z,9.24
2022-12-31T10:59:44.916Z,9.24
2022-12-31T11:00:44.937Z,9.24
2022-12-31T11:01:44.973Z,9.24
2022-12-31T11:02:45.062Z,9.24
2022-12-31T11:03:44.951Z,9.23
2022-12-31T11:04:44.855Z,9.22
2022-12-31T11:05:44.837Z,9.26
2022-12-31T11:06:44.838Z,9.26
2022-12-31T11:07:44.811Z,9.26
2022-12-31T11:08:44.800Z,9.26
2022-12-31T11:09:44.782Z,9.26
2022-12-31T11:10:44.770Z,9.26
2022-12-31T11:11:44.754Z,9.27
2022-12-31T11:12:44.755Z,9.26
2022-12-31T11:13:44.732Z,9.27
2022-12-31T11:14:44.721Z,9.26
2022-12-31T11:15:49.938Z,9.23
2022-12-31T11:16:44.730Z,9.23
2022-12-31T11:17:44.679Z,9.24
2022-12-31T11:18:44.668Z,9.23
2022-12-31T11:19:44.653Z,9.24
2022-12-31T11:20:44.642Z,9.26
2022-12-31T11:21:44.625Z,9.26
2022-12-31T11:22:44.618Z,9.26
2022-12-31T11:23:44.600Z,9.27
2022-12-31T11:24:44.587Z,9.27
2022-12-31T11:25:44.572Z,9.27
2022-12-31T11:26:44.565Z,9.29
2022-12-31T11:27:48.963Z,9.30
2022-12-31T11:28:44.533Z,9.31
2022-12-31T11:29:44.519Z,9.30
2022-12-31T11:30:44.581Z,9.31
2022-12-31T11:31:44.495Z,9.33
2022-12-31T11:32:44.509Z,9.31
2022-12-31T11:33:50.125Z,9.31
2022-12-31T11:34:45.493Z,9.31
2022-12-31T11:35:44.441Z,9.31
2022-12-31T11:36:44.427Z,9.31
2022-12-31T11:37:44.409Z,9.31
2022-12-31T11:38:44.401Z,9.31
2022-12-31T11:39:44.387Z,9.31
2022-12-31T11:40:44.378Z,9.31
2022-12-31T11:41:44.360Z,9.31
2022-12-31T11:42:44.348Z,9.31
2022-12-31T11:43:44.338Z,9.30
2022-12-31T11:44:44.330Z,9.33
2022-12-31T11:45:50.267Z,9.34
2022-12-31T11:46:45.397Z,9.34
2022-12-31T11:48:20.242Z,9.34
2022-12-31T11:48:45.335Z,9.34
2022-12-31T11:49:44.355Z,9.33
2022-12-31T11:50:44.248Z,9.34
2022-12-31T11:51:50.043Z,9.33
2022-12-31T11:52:45.259Z,9.33
2022-12-31T11:53:44.203Z,9.34
2022-12-31T11:54:44.193Z,9.33
2022-12-31T11:55:44.189Z,9.34
2022-12-31T11:56:44.194Z,9.33
2022-12-31T11:57:44.153Z,9.34
2022-12-31T11:58:44.140Z,9.34
2022-12-31T11:59:44.126Z,9.34
2022-12-31T12:00:44.113Z,9.33
2022-12-31T12:01:44.099Z,9.37
2022-12-31T12:02:44.168Z,9.37
2022-12-31T12:03:44.092Z,9.38
2022-12-31T12:04:44.101Z,9.38
2022-12-31T12:05:44.046Z,9.37
2022-12-31T12:06:44.036Z,9.38
2022-12-31T12:07:44.020Z,9.37
2022-12-31T12:08:44.009Z,9.38
2022-12-31T12:09:43.993Z,9.37
2022-12-31T12:10:43.983Z,9.38
2022-12-31T12:11:43.970Z,9.38
2022-12-31T12:12:43.955Z,9.34
2022-12-31T12:13:43.944Z,9.37
2022-12-31T12:14:43.942Z,9.38
2022-12-31T12:15:43.916Z,9.38
2022-12-31T12:16:43.958Z,9.37
2022-12-31T12:17:43.889Z,9.39
2022-12-31T12:18:43.874Z,9.41
2022-12-31T12:19:43.865Z,9.42
2022-12-31T12:20:43.876Z,9.42
2022-12-31T12:21:43.835Z,9.42
2022-12-31T12:22:49.371Z,9.42
2022-12-31T12:23:43.808Z,9.44
2022-12-31T12:24:43.793Z,9.42
2022-12-31T12:25:43.781Z,9.44
2022-12-31T12:26:43.771Z,9.42
2022-12-31T12:27:43.756Z,9.39
2022-12-31T12:28:44.457Z,9.41
2022-12-31T12:29:43.739Z,9.39
2022-12-31T12:30:43.715Z,9.41
2022-12-31T12:31:43.729Z,9.39
2022-12-31T12:32:43.689Z,9.41
2022-12-31T12:33:43.677Z,9.41
2022-12-31T12:34:49.385Z,9.39
2022-12-31T12:35:44.693Z,9.39
2022-12-31T12:36:43.664Z,9.38
2022-12-31T12:37:43.626Z,9.38
2022-12-31T12:38:43.623Z,9.38
2022-12-31T12:39:43.603Z,9.39
2022-12-31T12:40:43.584Z,9.41
2022-12-31T12:41:43.584Z,9.39
2022-12-31T12:42:43.555Z,9.41
2022-12-31T12:43:43.545Z,9.41
2022-12-31T12:44:43.533Z,9.39
2022-12-31T12:45:46.352Z,9.38
2022-12-31T12:46:48.013Z,9.41
2022-12-31T12:47:43.497Z,9.41
2022-12-31T12:48:43.494Z,9.39
2022-12-31T12:49:43.469Z,9.41
2022-12-31T12:50:43.454Z,9.41
2022-12-31T12:51:43.441Z,9.42
2022-12-31T12:52:43.454Z,9.39
2022-12-31T12:53:43.437Z,9.39
2022-12-31T12:54:43.399Z,9.41
2022-12-31T12:55:43.391Z,9.41
2022-12-31T12:56:43.372Z,9.41
2022-12-31T12:57:43.368Z,9.41
2022-12-31T12:58:43.346Z,9.42
2022-12-31T12:59:43.338Z,9.39
2022-12-31T13:00:43.401Z,9.41
2022-12-31T13:01:43.531Z,9.41
2022-12-31T13:02:43.347Z,9.42
2022-12-31T13:04:07.266Z,9.41
2022-12-31T13:04:44.310Z,9.41
2022-12-31T13:05:43.257Z,9.39
2022-12-31T13:06:43.239Z,9.39
2022-12-31T13:07:43.229Z,9.39
2022-12-31T13:08:43.241Z,9.41
2022-12-31T13:09:43.202Z,9.39
2022-12-31T13:10:43.188Z,9.39
2022-12-31T13:11:43.176Z,9.39
2022-12-31T13:13:22.280Z,9.39
2022-12-31T13:13:44.191Z,9.39
2022-12-31T13:14:43.135Z,9.38
2022-12-31T13:15:43.126Z,9.37
2022-12-31T13:16:43.153Z,9.38
2022-12-31T13:17:43.950Z,9.38
2022-12-31T13:18:43.088Z,9.38
2022-12-31T13:19:43.076Z,9.38
2022-12-31T13:20:43.059Z,9.38